sensor_id;sensor_type;location;lat;lon;timestamp;P1;durP1;ratioP1;P2;durP2;ratioP2
74922;SDS011;64715;44.760;37.678;2023-04-19T00:00:32;12.63;;;4.07;;
74922;SDS011;64715;44.760;37.678;2023-04-19T00:01:34;13.23;;;3.95;;
74922;SDS011;64715;44.760;37.678;2023-04-19T00:02:35;10.20;;;3.67;;
74922;SDS011;64715;44.760;37.678;2023-04-19T00:03:36;11.87;;;4.10;;
74922;SDS011;64715;44.760;37.678;2023-04-19T00:04:38;9.63;;;3.43;;
74922;SDS011;64715;44.760;37.678;2023-04-19T00:05:39;17.33;;;4.05;;
74922;SDS011;64715;44.760;37.678;2023-04-19T00:06:40;13.75;;;4.10;;
74922;SDS011;64715;44.760;37.678;2023-04-19T00:07:41;12.50;;;4.00;;
74922;SDS011;64715;44.760;37.678;2023-04-19T00:08:43;11.68;;;3.85;;
74922;SDS011;64715;44.760;37.678;2023-04-19T00:09:44;11.45;;;3.42;;
74922;SDS011;64715;44.760;37.678;2023-04-19T00:10:45;11.93;;;3.80;;
74922;SDS011;64715;44.760;37.678;2023-04-19T00:11:46;12.50;;;3.63;;
74922;SDS011;64715;44.760;37.678;2023-04-19T00:12:47;11.73;;;3.70;;
74922;SDS011;64715;44.760;37.678;2023-04-19T00:13:48;12.48;;;4.20;;
74922;SDS011;64715;44.760;37.678;2023-04-19T00:14:49;13.32;;;3.40;;
74922;SDS011;64715;44.760;37.678;2023-04-19T00:15:50;11.93;;;4.03;;
74922;SDS011;64715;44.760;37.678;2023-04-19T00:16:51;11.48;;;3.67;;
74922;SDS011;64715;44.760;37.678;2023-04-19T00:17:52;11.87;;;3.60;;
74922;SDS011;64715;44.760;37.678;2023-04-19T00:18:52;9.23;;;3.72;;
74922;SDS011;64715;44.760;37.678;2023-04-19T00:19:53;11.48;;;3.75;;
74922;SDS011;64715;44.760;37.678;2023-04-19T00:20:54;13.00;;;4.10;;
74922;SDS011;64715;44.760;37.678;2023-04-19T00:21:55;15.48;;;4.45;;
74922;SDS011;64715;44.760;37.678;2023-04-19T00:22:56;12.90;;;4.30;;
74922;SDS011;64715;44.760;37.678;2023-04-19T00:23:58;13.00;;;3.90;;
74922;SDS011;64715;44.760;37.678;2023-04-19T00:25:01;11.33;;;3.60;;
74922;SDS011;64715;44.760;37.678;2023-04-19T00:26:02;12.48;;;3.80;;
74922;SDS011;64715;44.760;37.678;2023-04-19T00:27:04;17.77;;;3.78;;
74922;SDS011;64715;44.760;37.678;2023-04-19T00:28:05;21.08;;;4.30;;
74922;SDS011;64715;44.760;37.678;2023-04-19T00:29:05;11.95;;;3.90;;
74922;SDS011;64715;44.760;37.678;2023-04-19T00:30:07;11.57;;;3.88;;
74922;SDS011;64715;44.760;37.678;2023-04-19T00:31:08;11.60;;;3.72;;
74922;SDS011;64715;44.760;37.678;2023-04-19T00:32:11;11.95;;;3.53;;
74922;SDS011;64715;44.760;37.678;2023-04-19T00:33:13;14.67;;;3.60;;
74922;SDS011;64715;44.760;37.678;2023-04-19T00:34:14;10.55;;;3.30;;
74922;SDS011;64715;44.760;37.678;2023-04-19T00:35:15;12.40;;;3.95;;
74922;SDS011;64715;44.760;37.678;2023-04-19T00:36:16;10.65;;;3.72;;
74922;SDS011;64715;44.760;37.678;2023-04-19T00:37:20;12.90;;;3.92;;
74922;SDS011;64715;44.760;37.678;2023-04-19T00:38:21;9.20;;;3.67;;
74922;SDS011;64715;44.760;37.678;2023-04-19T00:39:22;17.33;;;4.13;;
74922;SDS011;64715;44.760;37.678;2023-04-19T00:40:23;11.73;;;3.88;;
74922;SDS011;64715;44.760;37.678;2023-04-19T00:41:24;14.80;;;3.97;;
74922;SDS011;64715;44.760;37.678;2023-04-19T00:42:27;12.43;;;3.50;;
74922;SDS011;64715;44.760;37.678;2023-04-19T00:43:28;11.35;;;3.67;;
74922;SDS011;64715;44.760;37.678;2023-04-19T00:44:29;11.73;;;3.90;;
74922;SDS011;64715;44.760;37.678;2023-04-19T00:45:31;13.95;;;3.60;;
74922;SDS011;64715;44.760;37.678;2023-04-19T00:46:35;14.90;;;3.72;;
74922;SDS011;64715;44.760;37.678;2023-04-19T00:47:36;13.32;;;3.80;;
74922;SDS011;64715;44.760;37.678;2023-04-19T00:48:38;8.63;;;3.50;;
74922;SDS011;64715;44.760;37.678;2023-04-19T00:49:39;12.57;;;3.80;;
74922;SDS011;64715;44.760;37.678;2023-04-19T00:50:41;10.68;;;3.83;;
74922;SDS011;64715;44.760;37.678;2023-04-19T00:51:43;12.17;;;3.80;;
74922;SDS011;64715;44.760;37.678;2023-04-19T00:52:44;10.75;;;3.70;;
74922;SDS011;64715;44.760;37.678;2023-04-19T00:53:46;13.77;;;3.75;;
74922;SDS011;64715;44.760;37.678;2023-04-19T00:54:47;12.30;;;4.10;;
74922;SDS011;64715;44.760;37.678;2023-04-19T00:55:48;9.65;;;3.40;;
74922;SDS011;64715;44.760;37.678;2023-04-19T00:56:52;15.43;;;3.70;;
74922;SDS011;64715;44.760;37.678;2023-04-19T00:57:53;12.05;;;3.40;;
74922;SDS011;64715;44.760;37.678;2023-04-19T00:58:54;11.70;;;3.67;;
74922;SDS011;64715;44.760;37.678;2023-04-19T00:59:56;11.27;;;3.67;;
74922;SDS011;64715;44.760;37.678;2023-04-19T01:00:57;9.27;;;3.20;;
74922;SDS011;64715;44.760;37.678;2023-04-19T01:01:59;9.18;;;3.33;;
74922;SDS011;64715;44.760;37.678;2023-04-19T01:03:03;13.35;;;3.38;;
74922;SDS011;64715;44.760;37.678;2023-04-19T01:04:04;11.23;;;3.25;;
74922;SDS011;64715;44.760;37.678;2023-04-19T01:05:05;10.00;;;3.30;;
74922;SDS011;64715;44.760;37.678;2023-04-19T01:06:07;13.75;;;3.55;;
74922;SDS011;64715;44.760;37.678;2023-04-19T01:07:08;10.77;;;3.78;;
74922;SDS011;64715;44.760;37.678;2023-04-19T01:08:09;11.88;;;3.30;;
74922;SDS011;64715;44.760;37.678;2023-04-19T01:09:10;13.17;;;3.63;;
74922;SDS011;64715;44.760;37.678;2023-04-19T01:10:14;9.43;;;3.50;;
74922;SDS011;64715;44.760;37.678;2023-04-19T01:11:15;11.23;;;3.50;;
74922;SDS011;64715;44.760;37.678;2023-04-19T01:12:18;13.68;;;3.53;;
74922;SDS011;64715;44.760;37.678;2023-04-19T01:13:19;13.10;;;4.40;;
74922;SDS011;64715;44.760;37.678;2023-04-19T01:14:22;10.80;;;3.40;;
74922;SDS011;64715;44.760;37.678;2023-04-19T01:15:23;14.60;;;3.95;;
74922;SDS011;64715;44.760;37.678;2023-04-19T01:16:24;12.10;;;3.90;;
74922;SDS011;64715;44.760;37.678;2023-04-19T01:17:26;13.77;;;3.90;;
74922;SDS011;64715;44.760;37.678;2023-04-19T01:18:30;14.10;;;3.95;;
74922;SDS011;64715;44.760;37.678;2023-04-19T01:19:37;12.02;;;3.85;;
74922;SDS011;64715;44.760;37.678;2023-04-19T01:20:39;17.85;;;4.68;;
74922;SDS011;64715;44.760;37.678;2023-04-19T01:21:40;13.80;;;3.80;;
74922;SDS011;64715;44.760;37.678;2023-04-19T01:22:42;15.43;;;3.92;;
74922;SDS011;64715;44.760;37.678;2023-04-19T01:23:43;18.80;;;4.10;;
74922;SDS011;64715;44.760;37.678;2023-04-19T01:24:44;18.23;;;4.28;;
74922;SDS011;64715;44.760;37.678;2023-04-19T01:25:45;11.53;;;3.80;;
74922;SDS011;64715;44.760;37.678;2023-04-19T01:26:47;12.85;;;3.75;;
74922;SDS011;64715;44.760;37.678;2023-04-19T01:27:47;11.48;;;3.65;;
74922;SDS011;64715;44.760;37.678;2023-04-19T01:28:49;10.85;;;4.03;;
74922;SDS011;64715;44.760;37.678;2023-04-19T01:29:50;11.30;;;3.90;;
74922;SDS011;64715;44.760;37.678;2023-04-19T01:30:51;15.75;;;4.07;;
74922;SDS011;64715;44.760;37.678;2023-04-19T01:31:53;15.43;;;4.10;;
74922;SDS011;64715;44.760;37.678;2023-04-19T01:32:54;14.25;;;3.90;;
74922;SDS011;64715;44.760;37.678;2023-04-19T01:33:55;12.00;;;4.03;;
74922;SDS011;64715;44.760;37.678;2023-04-19T01:34:56;13.75;;;4.18;;
74922;SDS011;64715;44.760;37.678;2023-04-19T01:35:57;13.80;;;4.10;;
74922;SDS011;64715;44.760;37.678;2023-04-19T01:36:58;12.10;;;3.60;;
74922;SDS011;64715;44.760;37.678;2023-04-19T01:37:59;12.65;;;4.00;;
74922;SDS011;64715;44.760;37.678;2023-04-19T01:39:01;12.68;;;4.03;;
74922;SDS011;64715;44.760;37.678;2023-04-19T01:40:03;15.00;;;4.30;;
74922;SDS011;64715;44.760;37.678;2023-04-19T01:41:05;11.50;;;3.60;;
74922;SDS011;64715;44.760;37.678;2023-04-19T01:42:07;12.02;;;3.85;;
74922;SDS011;64715;44.760;37.678;2023-04-19T01:43:13;13.27;;;3.72;;
74922;SDS011;64715;44.760;37.678;2023-04-19T01:44:17;15.10;;;4.30;;
74922;SDS011;64715;44.760;37.678;2023-04-19T01:45:18;16.40;;;3.90;;
74922;SDS011;64715;44.760;37.678;2023-04-19T01:46:19;18.52;;;4.13;;
74922;SDS011;64715;44.760;37.678;2023-04-19T01:47:20;17.48;;;3.90;;
74922;SDS011;64715;44.760;37.678;2023-04-19T01:48:22;14.82;;;4.50;;
74922;SDS011;64715;44.760;37.678;2023-04-19T01:49:23;11.30;;;4.27;;
74922;SDS011;64715;44.760;37.678;2023-04-19T01:50:24;13.55;;;4.10;;
74922;SDS011;64715;44.760;37.678;2023-04-19T01:51:26;9.73;;;3.70;;
74922;SDS011;64715;44.760;37.678;2023-04-19T01:52:27;13.13;;;3.70;;
74922;SDS011;64715;44.760;37.678;2023-04-19T01:53:28;13.35;;;3.75;;
74922;SDS011;64715;44.760;37.678;2023-04-19T01:54:29;13.20;;;3.90;;
74922;SDS011;64715;44.760;37.678;2023-04-19T01:55:30;13.88;;;3.55;;
74922;SDS011;64715;44.760;37.678;2023-04-19T01:56:32;15.73;;;3.87;;
74922;SDS011;64715;44.760;37.678;2023-04-19T01:57:35;11.10;;;4.10;;
74922;SDS011;64715;44.760;37.678;2023-04-19T01:58:36;14.30;;;3.85;;
74922;SDS011;64715;44.760;37.678;2023-04-19T01:59:37;12.85;;;4.32;;
74922;SDS011;64715;44.760;37.678;2023-04-19T02:00:38;12.27;;;3.72;;
74922;SDS011;64715;44.760;37.678;2023-04-19T02:01:39;12.88;;;3.40;;
74922;SDS011;64715;44.760;37.678;2023-04-19T02:02:40;16.05;;;3.60;;
74922;SDS011;64715;44.760;37.678;2023-04-19T02:03:41;14.70;;;3.97;;
74922;SDS011;64715;44.760;37.678;2023-04-19T02:04:43;15.88;;;3.90;;
74922;SDS011;64715;44.760;37.678;2023-04-19T02:05:44;9.68;;;3.53;;
74922;SDS011;64715;44.760;37.678;2023-04-19T02:06:45;13.68;;;3.80;;
74922;SDS011;64715;44.760;37.678;2023-04-19T02:07:46;12.85;;;3.83;;
74922;SDS011;64715;44.760;37.678;2023-04-19T02:08:47;9.77;;;3.42;;
74922;SDS011;64715;44.760;37.678;2023-04-19T02:09:48;15.13;;;3.75;;
74922;SDS011;64715;44.760;37.678;2023-04-19T02:10:50;20.55;;;4.22;;
74922;SDS011;64715;44.760;37.678;2023-04-19T02:11:51;15.53;;;3.93;;
74922;SDS011;64715;44.760;37.678;2023-04-19T02:12:52;17.58;;;3.80;;
74922;SDS011;64715;44.760;37.678;2023-04-19T02:13:52;17.27;;;4.13;;
74922;SDS011;64715;44.760;37.678;2023-04-19T02:14:54;21.75;;;4.28;;
74922;SDS011;64715;44.760;37.678;2023-04-19T02:16:04;16.13;;;4.50;;
74922;SDS011;64715;44.760;37.678;2023-04-19T02:17:06;17.20;;;3.85;;
74922;SDS011;64715;44.760;37.678;2023-04-19T02:18:07;13.90;;;4.63;;
74922;SDS011;64715;44.760;37.678;2023-04-19T02:19:08;10.60;;;3.77;;
74922;SDS011;64715;44.760;37.678;2023-04-19T02:20:10;17.00;;;4.22;;
74922;SDS011;64715;44.760;37.678;2023-04-19T02:21:11;16.60;;;3.78;;
74922;SDS011;64715;44.760;37.678;2023-04-19T02:22:13;13.35;;;3.88;;
74922;SDS011;64715;44.760;37.678;2023-04-19T02:23:14;12.60;;;3.50;;
74922;SDS011;64715;44.760;37.678;2023-04-19T02:24:15;13.00;;;3.83;;
74922;SDS011;64715;44.760;37.678;2023-04-19T02:25:16;39.35;;;5.93;;
74922;SDS011;64715;44.760;37.678;2023-04-19T02:26:19;12.32;;;4.15;;
74922;SDS011;64715;44.760;37.678;2023-04-19T02:27:21;15.68;;;4.50;;
74922;SDS011;64715;44.760;37.678;2023-04-19T02:28:22;12.27;;;4.30;;
74922;SDS011;64715;44.760;37.678;2023-04-19T02:29:23;12.52;;;4.63;;
74922;SDS011;64715;44.760;37.678;2023-04-19T02:30:24;15.55;;;4.30;;
74922;SDS011;64715;44.760;37.678;2023-04-19T02:31:25;13.65;;;4.10;;
74922;SDS011;64715;44.760;37.678;2023-04-19T02:32:26;14.60;;;4.50;;
74922;SDS011;64715;44.760;37.678;2023-04-19T02:33:27;15.23;;;4.33;;
74922;SDS011;64715;44.760;37.678;2023-04-19T02:34:28;12.63;;;4.80;;
74922;SDS011;64715;44.760;37.678;2023-04-19T02:35:29;12.07;;;4.65;;
74922;SDS011;64715;44.760;37.678;2023-04-19T02:36:31;14.98;;;4.50;;
74922;SDS011;64715;44.760;37.678;2023-04-19T02:37:36;13.93;;;4.63;;
74922;SDS011;64715;44.760;37.678;2023-04-19T02:38:37;13.68;;;4.70;;
74922;SDS011;64715;44.760;37.678;2023-04-19T02:39:38;11.75;;;4.22;;
74922;SDS011;64715;44.760;37.678;2023-04-19T02:40:41;12.87;;;4.53;;
74922;SDS011;64715;44.760;37.678;2023-04-19T02:41:42;12.15;;;4.40;;
74922;SDS011;64715;44.760;37.678;2023-04-19T02:42:42;10.13;;;4.18;;
74922;SDS011;64715;44.760;37.678;2023-04-19T02:43:43;13.85;;;4.00;;
74922;SDS011;64715;44.760;37.678;2023-04-19T02:44:46;11.65;;;4.10;;
74922;SDS011;64715;44.760;37.678;2023-04-19T02:45:48;13.45;;;4.28;;
74922;SDS011;64715;44.760;37.678;2023-04-19T02:46:52;14.02;;;4.18;;
74922;SDS011;64715;44.760;37.678;2023-04-19T02:47:54;11.73;;;4.00;;
74922;SDS011;64715;44.760;37.678;2023-04-19T02:48:55;13.60;;;4.23;;
74922;SDS011;64715;44.760;37.678;2023-04-19T02:49:56;13.88;;;4.05;;
74922;SDS011;64715;44.760;37.678;2023-04-19T02:50:58;15.35;;;4.32;;
74922;SDS011;64715;44.760;37.678;2023-04-19T02:51:59;16.27;;;4.45;;
74922;SDS011;64715;44.760;37.678;2023-04-19T02:53:00;11.77;;;3.70;;
74922;SDS011;64715;44.760;37.678;2023-04-19T02:54:03;13.95;;;4.40;;
74922;SDS011;64715;44.760;37.678;2023-04-19T02:55:04;12.32;;;4.30;;
74922;SDS011;64715;44.760;37.678;2023-04-19T02:56:06;15.05;;;4.63;;
74922;SDS011;64715;44.760;37.678;2023-04-19T02:57:08;16.23;;;4.60;;
74922;SDS011;64715;44.760;37.678;2023-04-19T02:58:09;14.65;;;4.22;;
74922;SDS011;64715;44.760;37.678;2023-04-19T02:59:16;12.10;;;3.80;;
74922;SDS011;64715;44.760;37.678;2023-04-19T03:00:18;12.35;;;4.60;;
74922;SDS011;64715;44.760;37.678;2023-04-19T03:01:32;14.25;;;4.80;;
74922;SDS011;64715;44.760;37.678;2023-04-19T03:02:37;12.93;;;4.50;;
74922;SDS011;64715;44.760;37.678;2023-04-19T03:03:40;12.15;;;4.22;;
74922;SDS011;64715;44.760;37.678;2023-04-19T03:04:41;12.85;;;4.47;;
74922;SDS011;64715;44.760;37.678;2023-04-19T03:05:43;15.30;;;4.50;;
74922;SDS011;64715;44.760;37.678;2023-04-19T03:06:44;14.17;;;4.17;;
74922;SDS011;64715;44.760;37.678;2023-04-19T03:07:46;12.60;;;4.60;;
74922;SDS011;64715;44.760;37.678;2023-04-19T03:08:47;13.20;;;4.75;;
74922;SDS011;64715;44.760;37.678;2023-04-19T03:09:49;12.02;;;4.50;;
74922;SDS011;64715;44.760;37.678;2023-04-19T03:10:53;14.93;;;4.65;;
74922;SDS011;64715;44.760;37.678;2023-04-19T03:11:53;14.57;;;4.53;;
74922;SDS011;64715;44.760;37.678;2023-04-19T03:12:55;11.55;;;4.80;;
74922;SDS011;64715;44.760;37.678;2023-04-19T03:13:58;12.60;;;4.80;;
74922;SDS011;64715;44.760;37.678;2023-04-19T03:15:00;12.68;;;4.63;;
74922;SDS011;64715;44.760;37.678;2023-04-19T03:16:02;13.75;;;4.72;;
74922;SDS011;64715;44.760;37.678;2023-04-19T03:17:05;12.50;;;4.45;;
74922;SDS011;64715;44.760;37.678;2023-04-19T03:18:07;12.38;;;4.57;;
74922;SDS011;64715;44.760;37.678;2023-04-19T03:19:09;14.35;;;4.35;;
74922;SDS011;64715;44.760;37.678;2023-04-19T03:20:18;12.43;;;4.57;;
74922;SDS011;64715;44.760;37.678;2023-04-19T03:21:20;14.13;;;4.03;;
74922;SDS011;64715;44.760;37.678;2023-04-19T03:22:26;10.63;;;4.15;;
74922;SDS011;64715;44.760;37.678;2023-04-19T03:23:27;15.07;;;4.95;;
74922;SDS011;64715;44.760;37.678;2023-04-19T03:24:31;13.20;;;4.30;;
74922;SDS011;64715;44.760;37.678;2023-04-19T03:25:41;11.68;;;3.80;;
74922;SDS011;64715;44.760;37.678;2023-04-19T03:26:53;13.07;;;4.25;;
74922;SDS011;64715;44.760;37.678;2023-04-19T03:27:58;13.27;;;4.50;;
74922;SDS011;64715;44.760;37.678;2023-04-19T03:29:19;16.70;;;4.55;;
74922;SDS011;64715;44.760;37.678;2023-04-19T03:30:30;17.45;;;4.57;;
74922;SDS011;64715;44.760;37.678;2023-04-19T03:31:30;12.02;;;4.25;;
74922;SDS011;64715;44.760;37.678;2023-04-19T03:32:32;13.90;;;4.32;;
74922;SDS011;64715;44.760;37.678;2023-04-19T03:33:34;14.50;;;4.63;;
74922;SDS011;64715;44.760;37.678;2023-04-19T03:34:35;12.50;;;4.70;;
74922;SDS011;64715;44.760;37.678;2023-04-19T03:35:37;12.25;;;4.65;;
74922;SDS011;64715;44.760;37.678;2023-04-19T03:36:44;11.65;;;4.55;;
74922;SDS011;64715;44.760;37.678;2023-04-19T03:37:45;14.57;;;4.75;;
74922;SDS011;64715;44.760;37.678;2023-04-19T03:38:46;12.68;;;3.90;;
74922;SDS011;64715;44.760;37.678;2023-04-19T03:39:51;14.00;;;4.93;;
74922;SDS011;64715;44.760;37.678;2023-04-19T03:40:59;12.90;;;4.40;;
74922;SDS011;64715;44.760;37.678;2023-04-19T03:42:03;13.43;;;4.82;;
74922;SDS011;64715;44.760;37.678;2023-04-19T03:43:19;14.35;;;4.80;;
74922;SDS011;64715;44.760;37.678;2023-04-19T03:44:20;13.43;;;4.63;;
74922;SDS011;64715;44.760;37.678;2023-04-19T03:45:22;13.95;;;4.88;;
74922;SDS011;64715;44.760;37.678;2023-04-19T03:46:23;12.65;;;4.90;;
74922;SDS011;64715;44.760;37.678;2023-04-19T03:47:24;13.80;;;5.07;;
74922;SDS011;64715;44.760;37.678;2023-04-19T03:48:29;21.67;;;4.50;;
74922;SDS011;64715;44.760;37.678;2023-04-19T03:49:30;14.63;;;5.38;;
74922;SDS011;64715;44.760;37.678;2023-04-19T03:50:37;15.05;;;4.75;;
74922;SDS011;64715;44.760;37.678;2023-04-19T03:51:38;13.98;;;4.95;;
74922;SDS011;64715;44.760;37.678;2023-04-19T03:52:40;13.55;;;4.97;;
74922;SDS011;64715;44.760;37.678;2023-04-19T03:53:42;13.93;;;4.87;;
74922;SDS011;64715;44.760;37.678;2023-04-19T03:54:43;13.05;;;4.60;;
74922;SDS011;64715;44.760;37.678;2023-04-19T03:55:57;11.73;;;4.30;;
74922;SDS011;64715;44.760;37.678;2023-04-19T03:56:58;12.80;;;4.70;;
74922;SDS011;64715;44.760;37.678;2023-04-19T03:58:02;14.35;;;4.78;;
74922;SDS011;64715;44.760;37.678;2023-04-19T03:59:14;12.25;;;4.63;;
74922;SDS011;64715;44.760;37.678;2023-04-19T04:00:16;14.27;;;4.97;;
74922;SDS011;64715;44.760;37.678;2023-04-19T04:01:22;12.95;;;4.75;;
74922;SDS011;64715;44.760;37.678;2023-04-19T04:02:25;14.30;;;4.88;;
74922;SDS011;64715;44.760;37.678;2023-04-19T04:03:26;13.57;;;4.72;;
74922;SDS011;64715;44.760;37.678;2023-04-19T04:04:27;13.17;;;4.70;;
74922;SDS011;64715;44.760;37.678;2023-04-19T04:05:28;12.65;;;4.35;;
74922;SDS011;64715;44.760;37.678;2023-04-19T04:06:30;13.68;;;5.15;;
74922;SDS011;64715;44.760;37.678;2023-04-19T04:07:30;15.50;;;5.82;;
74922;SDS011;64715;44.760;37.678;2023-04-19T04:08:31;13.80;;;5.10;;
74922;SDS011;64715;44.760;37.678;2023-04-19T04:09:33;12.88;;;5.70;;
74922;SDS011;64715;44.760;37.678;2023-04-19T04:10:34;14.60;;;5.00;;
74922;SDS011;64715;44.760;37.678;2023-04-19T04:11:35;13.03;;;5.47;;
74922;SDS011;64715;44.760;37.678;2023-04-19T04:12:36;13.60;;;5.40;;
74922;SDS011;64715;44.760;37.678;2023-04-19T04:13:38;20.50;;;5.28;;
74922;SDS011;64715;44.760;37.678;2023-04-19T04:14:46;15.80;;;5.65;;
74922;SDS011;64715;44.760;37.678;2023-04-19T04:15:47;15.32;;;5.80;;
74922;SDS011;64715;44.760;37.678;2023-04-19T04:16:50;14.82;;;5.50;;
74922;SDS011;64715;44.760;37.678;2023-04-19T04:17:51;16.58;;;5.50;;
74922;SDS011;64715;44.760;37.678;2023-04-19T04:18:53;16.13;;;5.07;;
74922;SDS011;64715;44.760;37.678;2023-04-19T04:19:58;18.92;;;5.38;;
74922;SDS011;64715;44.760;37.678;2023-04-19T04:21:03;16.33;;;4.70;;
74922;SDS011;64715;44.760;37.678;2023-04-19T04:22:05;19.70;;;12.00;;
74922;SDS011;64715;44.760;37.678;2023-04-19T04:23:09;20.38;;;6.65;;
74922;SDS011;64715;44.760;37.678;2023-04-19T04:24:14;19.00;;;5.43;;
74922;SDS011;64715;44.760;37.678;2023-04-19T04:25:31;17.08;;;5.60;;
74922;SDS011;64715;44.760;37.678;2023-04-19T04:26:38;14.48;;;5.45;;
74922;SDS011;64715;44.760;37.678;2023-04-19T04:28:00;12.73;;;5.30;;
74922;SDS011;64715;44.760;37.678;2023-04-19T04:29:02;16.25;;;5.40;;
74922;SDS011;64715;44.760;37.678;2023-04-19T04:30:04;20.70;;;6.63;;
74922;SDS011;64715;44.760;37.678;2023-04-19T04:31:06;24.48;;;7.30;;
74922;SDS011;64715;44.760;37.678;2023-04-19T04:32:09;20.13;;;5.95;;
74922;SDS011;64715;44.760;37.678;2023-04-19T04:33:15;17.57;;;6.07;;
74922;SDS011;64715;44.760;37.678;2023-04-19T04:34:17;14.23;;;5.40;;
74922;SDS011;64715;44.760;37.678;2023-04-19T04:35:25;15.50;;;6.13;;
74922;SDS011;64715;44.760;37.678;2023-04-19T04:36:40;12.80;;;5.53;;
74922;SDS011;64715;44.760;37.678;2023-04-19T04:37:41;16.55;;;5.68;;
74922;SDS011;64715;44.760;37.678;2023-04-19T04:38:43;15.95;;;5.72;;
74922;SDS011;64715;44.760;37.678;2023-04-19T04:39:44;13.40;;;5.38;;
74922;SDS011;64715;44.760;37.678;2023-04-19T04:40:52;18.88;;;5.82;;
74922;SDS011;64715;44.760;37.678;2023-04-19T04:41:54;15.45;;;6.30;;
74922;SDS011;64715;44.760;37.678;2023-04-19T04:43:07;11.63;;;5.47;;
74922;SDS011;64715;44.760;37.678;2023-04-19T04:44:08;13.13;;;5.47;;
74922;SDS011;64715;44.760;37.678;2023-04-19T04:45:11;17.92;;;6.00;;
74922;SDS011;64715;44.760;37.678;2023-04-19T04:46:27;19.27;;;5.82;;
74922;SDS011;64715;44.760;37.678;2023-04-19T04:47:32;12.80;;;5.80;;
74922;SDS011;64715;44.760;37.678;2023-04-19T04:48:37;19.35;;;5.30;;
74922;SDS011;64715;44.760;37.678;2023-04-19T04:49:39;15.20;;;5.95;;
74922;SDS011;64715;44.760;37.678;2023-04-19T04:50:41;16.15;;;5.70;;
74922;SDS011;64715;44.760;37.678;2023-04-19T04:51:43;17.25;;;5.95;;
74922;SDS011;64715;44.760;37.678;2023-04-19T04:52:45;16.13;;;5.97;;
74922;SDS011;64715;44.760;37.678;2023-04-19T04:53:52;15.88;;;4.90;;
74922;SDS011;64715;44.760;37.678;2023-04-19T04:54:53;17.83;;;5.30;;
74922;SDS011;64715;44.760;37.678;2023-04-19T04:56:00;18.63;;;5.82;;
74922;SDS011;64715;44.760;37.678;2023-04-19T04:57:02;20.40;;;5.70;;
74922;SDS011;64715;44.760;37.678;2023-04-19T04:58:03;14.35;;;5.80;;
74922;SDS011;64715;44.760;37.678;2023-04-19T04:59:16;18.27;;;6.10;;
74922;SDS011;64715;44.760;37.678;2023-04-19T05:00:20;15.20;;;6.10;;
74922;SDS011;64715;44.760;37.678;2023-04-19T05:01:37;16.85;;;5.70;;
74922;SDS011;64715;44.760;37.678;2023-04-19T05:02:38;18.48;;;5.85;;
74922;SDS011;64715;44.760;37.678;2023-04-19T05:03:40;14.85;;;5.55;;
74922;SDS011;64715;44.760;37.678;2023-04-19T05:04:47;19.00;;;5.07;;
74922;SDS011;64715;44.760;37.678;2023-04-19T05:05:48;12.87;;;5.30;;
74922;SDS011;64715;44.760;37.678;2023-04-19T05:06:50;15.90;;;5.47;;
74922;SDS011;64715;44.760;37.678;2023-04-19T05:07:57;15.95;;;5.30;;
74922;SDS011;64715;44.760;37.678;2023-04-19T05:08:59;13.73;;;5.28;;
74922;SDS011;64715;44.760;37.678;2023-04-19T05:10:07;17.63;;;5.40;;
74922;SDS011;64715;44.760;37.678;2023-04-19T05:11:16;16.23;;;5.60;;
74922;SDS011;64715;44.760;37.678;2023-04-19T05:12:18;16.48;;;5.50;;
74922;SDS011;64715;44.760;37.678;2023-04-19T05:13:19;13.48;;;5.22;;
74922;SDS011;64715;44.760;37.678;2023-04-19T05:14:21;15.67;;;5.27;;
74922;SDS011;64715;44.760;37.678;2023-04-19T05:15:22;14.60;;;4.93;;
74922;SDS011;64715;44.760;37.678;2023-04-19T05:16:26;13.48;;;5.07;;
74922;SDS011;64715;44.760;37.678;2023-04-19T05:17:28;14.40;;;5.05;;
74922;SDS011;64715;44.760;37.678;2023-04-19T05:18:30;13.25;;;5.40;;
74922;SDS011;64715;44.760;37.678;2023-04-19T05:19:31;17.77;;;5.53;;
74922;SDS011;64715;44.760;37.678;2023-04-19T05:20:38;17.00;;;4.57;;
74922;SDS011;64715;44.760;37.678;2023-04-19T05:21:46;12.25;;;4.70;;
74922;SDS011;64715;44.760;37.678;2023-04-19T05:22:48;17.88;;;7.28;;
74922;SDS011;64715;44.760;37.678;2023-04-19T05:23:50;14.98;;;5.40;;
74922;SDS011;64715;44.760;37.678;2023-04-19T05:24:52;13.60;;;4.70;;
74922;SDS011;64715;44.760;37.678;2023-04-19T05:25:55;12.43;;;4.85;;
74922;SDS011;64715;44.760;37.678;2023-04-19T05:26:59;12.88;;;4.70;;
74922;SDS011;64715;44.760;37.678;2023-04-19T05:28:01;15.00;;;4.63;;
74922;SDS011;64715;44.760;37.678;2023-04-19T05:29:08;14.48;;;4.38;;
74922;SDS011;64715;44.760;37.678;2023-04-19T05:30:21;17.00;;;6.93;;
74922;SDS011;64715;44.760;37.678;2023-04-19T05:31:23;17.77;;;5.47;;
74922;SDS011;64715;44.760;37.678;2023-04-19T05:32:44;13.13;;;4.60;;
74922;SDS011;64715;44.760;37.678;2023-04-19T05:33:48;13.43;;;4.47;;
74922;SDS011;64715;44.760;37.678;2023-04-19T05:34:49;16.33;;;4.32;;
74922;SDS011;64715;44.760;37.678;2023-04-19T05:35:50;13.07;;;3.73;;
74922;SDS011;64715;44.760;37.678;2023-04-19T05:36:51;13.13;;;4.05;;
74922;SDS011;64715;44.760;37.678;2023-04-19T05:37:52;13.52;;;3.72;;
74922;SDS011;64715;44.760;37.678;2023-04-19T05:38:53;12.63;;;3.83;;
74922;SDS011;64715;44.760;37.678;2023-04-19T05:39:54;10.90;;;3.90;;
74922;SDS011;64715;44.760;37.678;2023-04-19T05:40:58;11.75;;;3.70;;
74922;SDS011;64715;44.760;37.678;2023-04-19T05:42:00;9.70;;;3.38;;
74922;SDS011;64715;44.760;37.678;2023-04-19T05:43:01;12.75;;;4.03;;
74922;SDS011;64715;44.760;37.678;2023-04-19T05:44:02;8.98;;;3.28;;
74922;SDS011;64715;44.760;37.678;2023-04-19T05:45:04;11.90;;;3.90;;
74922;SDS011;64715;44.760;37.678;2023-04-19T05:46:06;10.00;;;3.90;;
74922;SDS011;64715;44.760;37.678;2023-04-19T05:47:07;13.20;;;3.63;;
74922;SDS011;64715;44.760;37.678;2023-04-19T05:48:37;11.85;;;3.75;;
74922;SDS011;64715;44.760;37.678;2023-04-19T05:49:57;15.23;;;7.13;;
74922;SDS011;64715;44.760;37.678;2023-04-19T05:51:05;12.00;;;4.20;;
74922;SDS011;64715;44.760;37.678;2023-04-19T05:52:20;9.93;;;3.88;;
74922;SDS011;64715;44.760;37.678;2023-04-19T05:53:27;12.65;;;3.88;;
74922;SDS011;64715;44.760;37.678;2023-04-19T05:54:30;11.38;;;4.03;;
74922;SDS011;64715;44.760;37.678;2023-04-19T05:55:35;11.20;;;4.25;;
74922;SDS011;64715;44.760;37.678;2023-04-19T05:56:37;12.23;;;3.90;;
74922;SDS011;64715;44.760;37.678;2023-04-19T05:57:39;10.05;;;3.97;;
74922;SDS011;64715;44.760;37.678;2023-04-19T05:58:41;17.50;;;5.45;;
74922;SDS011;64715;44.760;37.678;2023-04-19T05:59:42;8.73;;;3.85;;
74922;SDS011;64715;44.760;37.678;2023-04-19T06:00:46;10.10;;;3.85;;
74922;SDS011;64715;44.760;37.678;2023-04-19T06:01:51;12.68;;;4.00;;
74922;SDS011;64715;44.760;37.678;2023-04-19T06:02:52;11.35;;;3.90;;
74922;SDS011;64715;44.760;37.678;2023-04-19T06:03:55;11.05;;;4.28;;
74922;SDS011;64715;44.760;37.678;2023-04-19T06:04:58;11.37;;;3.73;;
74922;SDS011;64715;44.760;37.678;2023-04-19T06:06:00;7.75;;;3.30;;
74922;SDS011;64715;44.760;37.678;2023-04-19T06:07:02;39.10;;;6.00;;
74922;SDS011;64715;44.760;37.678;2023-04-19T06:08:03;17.55;;;3.88;;